sensor_id;sensor_type;location;lat;lon;timestamp;P1;durP1;ratioP1;P2;durP2;ratioP2
545;SDS011;259;53.304;9.816;2023-02-15T00:01:49;6.13;;;5.53;;
545;SDS011;259;53.304;9.816;2023-02-15T00:04:17;5.50;;;5.10;;
545;SDS011;259;53.304;9.816;2023-02-15T00:06:45;5.10;;;4.70;;
545;SDS011;259;53.304;9.816;2023-02-15T00:09:12;5.13;;;4.73;;
545;SDS011;259;53.304;9.816;2023-02-15T00:11:38;5.57;;;5.17;;
545;SDS011;259;53.304;9.816;2023-02-15T00:14:20;5.33;;;4.93;;
545;SDS011;259;53.304;9.816;2023-02-15T00:16:48;5.40;;;5.00;;
545;SDS011;259;53.304;9.816;2023-02-15T00:19:17;4.63;;;4.33;;
545;SDS011;259;53.304;9.816;2023-02-15T00:21:46;4.67;;;4.27;;
545;SDS011;259;53.304;9.816;2023-02-15T00:24:13;4.67;;;4.37;;
545;SDS011;259;53.304;9.816;2023-02-15T00:26:41;4.90;;;4.60;;
545;SDS011;259;53.304;9.816;2023-02-15T00:29:08;5.17;;;4.77;;
545;SDS011;259;53.304;9.816;2023-02-15T00:31:36;4.90;;;4.60;;
545;SDS011;259;53.304;9.816;2023-02-15T00:34:06;4.53;;;4.23;;
545;SDS011;259;53.304;9.816;2023-02-15T00:36:36;4.67;;;4.37;;
545;SDS011;259;53.304;9.816;2023-02-15T00:39:03;5.20;;;4.80;;
545;SDS011;259;53.304;9.816;2023-02-15T00:41:29;4.13;;;3.83;;
545;SDS011;259;53.304;9.816;2023-02-15T00:43:56;5.07;;;4.67;;
545;SDS011;259;53.304;9.816;2023-02-15T00:46:22;4.93;;;4.53;;
545;SDS011;259;53.304;9.816;2023-02-15T00:48:48;4.70;;;4.40;;
545;SDS011;259;53.304;9.816;2023-02-15T00:51:14;4.97;;;4.67;;
545;SDS011;259;53.304;9.816;2023-02-15T00:53:41;5.17;;;4.87;;
545;SDS011;259;53.304;9.816;2023-02-15T00:56:08;4.57;;;4.27;;
545;SDS011;259;53.304;9.816;2023-02-15T00:58:34;5.47;;;5.07;;
545;SDS011;259;53.304;9.816;2023-02-15T01:01:07;5.00;;;4.60;;
545;SDS011;259;53.304;9.816;2023-02-15T01:03:42;4.63;;;4.33;;
545;SDS011;259;53.304;9.816;2023-02-15T01:06:08;5.07;;;4.77;;
545;SDS011;259;53.304;9.816;2023-02-15T01:08:35;4.90;;;4.60;;
545;SDS011;259;53.304;9.816;2023-02-15T01:11:03;5.10;;;4.70;;
545;SDS011;259;53.304;9.816;2023-02-15T01:13:34;4.67;;;4.37;;
545;SDS011;259;53.304;9.816;2023-02-15T01:16:00;4.97;;;4.63;;
545;SDS011;259;53.304;9.816;2023-02-15T01:18:27;4.63;;;4.33;;
545;SDS011;259;53.304;9.816;2023-02-15T01:20:52;4.67;;;4.37;;
545;SDS011;259;53.304;9.816;2023-02-15T01:23:18;4.40;;;4.10;;
545;SDS011;259;53.304;9.816;2023-02-15T01:25:44;4.30;;;4.00;;
545;SDS011;259;53.304;9.816;2023-02-15T01:28:10;4.90;;;4.50;;
545;SDS011;259;53.304;9.816;2023-02-15T01:30:36;5.00;;;4.60;;
545;SDS011;259;53.304;9.816;2023-02-15T01:33:01;4.20;;;3.90;;
545;SDS011;259;53.304;9.816;2023-02-15T01:35:27;5.07;;;4.67;;
545;SDS011;259;53.304;9.816;2023-02-15T01:37:54;4.37;;;4.07;;
545;SDS011;259;53.304;9.816;2023-02-15T01:40:20;4.83;;;4.53;;
545;SDS011;259;53.304;9.816;2023-02-15T01:42:50;4.40;;;4.10;;
545;SDS011;259;53.304;9.816;2023-02-15T01:48:06;4.30;;;4.00;;
545;SDS011;259;53.304;9.816;2023-02-15T01:50:50;4.70;;;4.40;;
545;SDS011;259;53.304;9.816;2023-02-15T01:53:37;4.43;;;4.13;;
545;SDS011;259;53.304;9.816;2023-02-15T01:56:17;4.50;;;4.00;;
545;SDS011;259;53.304;9.816;2023-02-15T01:58:47;5.23;;;4.83;;
545;SDS011;259;53.304;9.816;2023-02-15T02:01:14;4.70;;;4.40;;
545;SDS011;259;53.304;9.816;2023-02-15T02:03:53;4.13;;;3.83;;
545;SDS011;259;53.304;9.816;2023-02-15T02:06:40;4.47;;;4.17;;
545;SDS011;259;53.304;9.816;2023-02-15T02:09:06;3.97;;;3.73;;
545;SDS011;259;53.304;9.816;2023-02-15T02:11:32;5.13;;;4.73;;
545;SDS011;259;53.304;9.816;2023-02-15T02:13:59;4.20;;;3.90;;
545;SDS011;259;53.304;9.816;2023-02-15T02:16:28;3.83;;;3.63;;
545;SDS011;259;53.304;9.816;2023-02-15T02:19:32;4.60;;;4.30;;
545;SDS011;259;53.304;9.816;2023-02-15T02:37:33;4.20;;;3.90;;
545;SDS011;259;53.304;9.816;2023-02-15T02:40:19;4.30;;;4.00;;
545;SDS011;259;53.304;9.816;2023-02-15T02:43:30;3.90;;;3.70;;
545;SDS011;259;53.304;9.816;2023-02-15T02:46:07;4.30;;;4.00;;
545;SDS011;259;53.304;9.816;2023-02-15T02:48:42;4.07;;;3.80;;
545;SDS011;259;53.304;9.816;2023-02-15T02:51:08;3.87;;;3.67;;
545;SDS011;259;53.304;9.816;2023-02-15T02:53:34;4.27;;;3.97;;
545;SDS011;259;53.304;9.816;2023-02-15T02:56:06;4.03;;;3.70;;
545;SDS011;259;53.304;9.816;2023-02-15T02:58:48;3.83;;;3.63;;
545;SDS011;259;53.304;9.816;2023-02-15T03:01:26;3.90;;;3.60;;
545;SDS011;259;53.304;9.816;2023-02-15T03:04:09;3.97;;;3.67;;
545;SDS011;259;53.304;9.816;2023-02-15T03:09:38;3.43;;;3.23;;
545;SDS011;259;53.304;9.816;2023-02-15T03:12:15;3.70;;;3.50;;
545;SDS011;259;53.304;9.816;2023-02-15T03:14:53;4.13;;;3.83;;
545;SDS011;259;53.304;9.816;2023-02-15T03:17:29;3.47;;;3.27;;
545;SDS011;259;53.304;9.816;2023-02-15T03:20:00;3.77;;;3.57;;
545;SDS011;259;53.304;9.816;2023-02-15T03:22:33;3.40;;;3.20;;
545;SDS011;259;53.304;9.816;2023-02-15T03:25:25;3.37;;;3.17;;
545;SDS011;259;53.304;9.816;2023-02-15T03:28:03;3.70;;;3.50;;
545;SDS011;259;53.304;9.816;2023-02-15T03:30:36;3.50;;;3.30;;
545;SDS011;259;53.304;9.816;2023-02-15T03:33:05;3.20;;;3.00;;
545;SDS011;259;53.304;9.816;2023-02-15T03:35:44;3.40;;;3.20;;
545;SDS011;259;53.304;9.816;2023-02-15T03:38:20;3.10;;;2.90;;
545;SDS011;259;53.304;9.816;2023-02-15T03:40:51;3.80;;;3.60;;
545;SDS011;259;53.304;9.816;2023-02-15T03:49:10;3.27;;;3.07;;
545;SDS011;259;53.304;9.816;2023-02-15T03:51:40;3.23;;;3.03;;
545;SDS011;259;53.304;9.816;2023-02-15T03:54:12;3.20;;;3.00;;
545;SDS011;259;53.304;9.816;2023-02-15T03:57:04;3.57;;;3.37;;
545;SDS011;259;53.304;9.816;2023-02-15T03:59:51;3.83;;;3.63;;
545;SDS011;259;53.304;9.816;2023-02-15T04:02:39;3.20;;;3.00;;
545;SDS011;259;53.304;9.816;2023-02-15T04:05:24;3.37;;;3.17;;
545;SDS011;259;53.304;9.816;2023-02-15T04:07:50;4.07;;;3.83;;
545;SDS011;259;53.304;9.816;2023-02-15T04:10:16;3.50;;;3.30;;
545;SDS011;259;53.304;9.816;2023-02-15T04:13:00;3.40;;;3.20;;
545;SDS011;259;53.304;9.816;2023-02-15T04:15:25;3.50;;;3.30;;
545;SDS011;259;53.304;9.816;2023-02-15T04:18:10;2.93;;;2.73;;
545;SDS011;259;53.304;9.816;2023-02-15T04:20:35;4.00;;;3.70;;
545;SDS011;259;53.304;9.816;2023-02-15T04:23:19;3.47;;;3.27;;
545;SDS011;259;53.304;9.816;2023-02-15T04:26:04;3.17;;;2.97;;
545;SDS011;259;53.304;9.816;2023-02-15T04:28:30;3.40;;;3.20;;
545;SDS011;259;53.304;9.816;2023-02-15T04:30:56;3.67;;;3.47;;
545;SDS011;259;53.304;9.816;2023-02-15T04:33:22;3.13;;;2.93;;
545;SDS011;259;53.304;9.816;2023-02-15T04:35:47;3.63;;;3.43;;
545;SDS011;259;53.304;9.816;2023-02-15T04:38:13;2.83;;;2.67;;
545;SDS011;259;53.304;9.816;2023-02-15T04:40:39;3.20;;;3.00;;
545;SDS011;259;53.304;9.816;2023-02-15T04:43:04;3.10;;;2.90;;
545;SDS011;259;53.304;9.816;2023-02-15T04:45:30;2.83;;;2.73;;
545;SDS011;259;53.304;9.816;2023-02-15T04:47:56;2.73;;;2.57;;
545;SDS011;259;53.304;9.816;2023-02-15T04:50:21;2.80;;;2.60;;
545;SDS011;259;53.304;9.816;2023-02-15T04:52:47;3.00;;;2.80;;
545;SDS011;259;53.304;9.816;2023-02-15T04:55:13;2.60;;;2.50;;
545;SDS011;259;53.304;9.816;2023-02-15T04:57:39;2.97;;;2.77;;
545;SDS011;259;53.304;9.816;2023-02-15T05:00:05;3.47;;;3.27;;
545;SDS011;259;53.304;9.816;2023-02-15T05:02:33;3.00;;;2.80;;
545;SDS011;259;53.304;9.816;2023-02-15T05:04:59;3.10;;;2.90;;
545;SDS011;259;53.304;9.816;2023-02-15T05:07:24;2.97;;;2.77;;
545;SDS011;259;53.304;9.816;2023-02-15T05:09:50;3.20;;;2.97;;
545;SDS011;259;53.304;9.816;2023-02-15T05:12:16;2.93;;;2.73;;
545;SDS011;259;53.304;9.816;2023-02-15T05:14:41;2.70;;;2.60;;
545;SDS011;259;53.304;9.816;2023-02-15T05:17:07;2.70;;;2.50;;
545;SDS011;259;53.304;9.816;2023-02-15T05:19:32;2.70;;;2.50;;
545;SDS011;259;53.304;9.816;2023-02-15T05:21:58;3.10;;;2.90;;
545;SDS011;259;53.304;9.816;2023-02-15T05:24:24;2.40;;;2.30;;
545;SDS011;259;53.304;9.816;2023-02-15T05:27:25;2.73;;;2.53;;
545;SDS011;259;53.304;9.816;2023-02-15T05:30:09;2.77;;;2.67;;
545;SDS011;259;53.304;9.816;2023-02-15T05:32:37;2.63;;;2.47;;
545;SDS011;259;53.304;9.816;2023-02-15T05:35:04;3.13;;;2.93;;
545;SDS011;259;53.304;9.816;2023-02-15T05:37:31;3.00;;;2.80;;
545;SDS011;259;53.304;9.816;2023-02-15T05:39:57;2.73;;;2.53;;
545;SDS011;259;53.304;9.816;2023-02-15T05:42:23;2.27;;;2.17;;
545;SDS011;259;53.304;9.816;2023-02-15T05:44:49;2.87;;;2.77;;
545;SDS011;259;53.304;9.816;2023-02-15T05:47:14;3.03;;;2.83;;
545;SDS011;259;53.304;9.816;2023-02-15T05:49:40;2.90;;;2.70;;
545;SDS011;259;53.304;9.816;2023-02-15T05:52:06;2.83;;;2.70;;
545;SDS011;259;53.304;9.816;2023-02-15T05:54:32;3.53;;;3.23;;
545;SDS011;259;53.304;9.816;2023-02-15T05:56:57;2.90;;;2.70;;
545;SDS011;259;53.304;9.816;2023-02-15T05:59:23;2.73;;;2.60;;
545;SDS011;259;53.304;9.816;2023-02-15T06:01:49;2.37;;;2.27;;
545;SDS011;259;53.304;9.816;2023-02-15T06:04:14;3.03;;;2.83;;
545;SDS011;259;53.304;9.816;2023-02-15T06:06:40;2.97;;;2.77;;
545;SDS011;259;53.304;9.816;2023-02-15T06:09:06;3.00;;;2.80;;
545;SDS011;259;53.304;9.816;2023-02-15T06:11:32;2.60;;;2.43;;
545;SDS011;259;53.304;9.816;2023-02-15T06:13:57;2.63;;;2.53;;
545;SDS011;259;53.304;9.816;2023-02-15T06:16:23;3.13;;;2.93;;
545;SDS011;259;53.304;9.816;2023-02-15T06:18:49;2.90;;;2.70;;
545;SDS011;259;53.304;9.816;2023-02-15T06:21:14;2.90;;;2.70;;
545;SDS011;259;53.304;9.816;2023-02-15T06:23:41;2.90;;;2.70;;
545;SDS011;259;53.304;9.816;2023-02-15T06:26:08;3.23;;;2.93;;
545;SDS011;259;53.304;9.816;2023-02-15T06:28:33;2.60;;;2.50;;
545;SDS011;259;53.304;9.816;2023-02-15T06:30:59;3.07;;;2.87;;
545;SDS011;259;53.304;9.816;2023-02-15T06:33:25;2.77;;;2.57;;
545;SDS011;259;53.304;9.816;2023-02-15T06:35:50;3.03;;;2.83;;
545;SDS011;259;53.304;9.816;2023-02-15T06:38:16;3.10;;;2.90;;
545;SDS011;259;53.304;9.816;2023-02-15T06:40:42;3.60;;;3.30;;
545;SDS011;259;53.304;9.816;2023-02-15T06:43:08;14.90;;;12.80;;
545;SDS011;259;53.304;9.816;2023-02-15T06:45:33;41.53;;;37.17;;
545;SDS011;259;53.304;9.816;2023-02-15T06:47:59;30.27;;;19.80;;
545;SDS011;259;53.304;9.816;2023-02-15T06:50:25;23.57;;;20.20;;
545;SDS011;259;53.304;9.816;2023-02-15T06:52:55;28.67;;;19.90;;
545;SDS011;259;53.304;9.816;2023-02-15T06:55:21;30.30;;;19.00;;
545;SDS011;259;53.304;9.816;2023-02-15T06:57:47;26.17;;;20.10;;
545;SDS011;259;53.304;9.816;2023-02-15T07:00:13;29.00;;;18.47;;
545;SDS011;259;53.304;9.816;2023-02-15T07:02:39;24.37;;;17.17;;
545;SDS011;259;53.304;9.816;2023-02-15T07:05:05;24.40;;;18.77;;
545;SDS011;259;53.304;9.816;2023-02-15T07:07:30;19.50;;;15.37;;
545;SDS011;259;53.304;9.816;2023-02-15T07:09:56;21.20;;;16.37;;
545;SDS011;259;53.304;9.816;2023-02-15T07:12:22;18.23;;;14.27;;
545;SDS011;259;53.304;9.816;2023-02-15T07:15:07;22.20;;;14.07;;
545;SDS011;259;53.304;9.816;2023-02-15T07:17:38;16.30;;;13.90;;
545;SDS011;259;53.304;9.816;2023-02-15T07:20:06;17.93;;;15.43;;
545;SDS011;259;53.304;9.816;2023-02-15T07:22:35;23.83;;;16.67;;
545;SDS011;259;53.304;9.816;2023-02-15T07:25:02;21.97;;;13.70;;
545;SDS011;259;53.304;9.816;2023-02-15T07:27:33;19.43;;;14.40;;
545;SDS011;259;53.304;9.816;2023-02-15T07:29:59;17.40;;;12.77;;
545;SDS011;259;53.304;9.816;2023-02-15T07:32:32;18.80;;;13.23;;
545;SDS011;259;53.304;9.816;2023-02-15T07:34:58;18.13;;;12.40;;
545;SDS011;259;53.304;9.816;2023-02-15T07:37:25;16.60;;;10.73;;
545;SDS011;259;53.304;9.816;2023-02-15T07:39:51;21.77;;;10.40;;
545;SDS011;259;53.304;9.816;2023-02-15T07:42:17;20.97;;;9.20;;
545;SDS011;259;53.304;9.816;2023-02-15T07:44:44;15.97;;;9.67;;
545;SDS011;259;53.304;9.816;2023-02-15T07:47:11;14.73;;;9.03;;
545;SDS011;259;53.304;9.816;2023-02-15T07:49:37;15.83;;;8.90;;
545;SDS011;259;53.304;9.816;2023-02-15T07:52:03;16.70;;;7.47;;
545;SDS011;259;53.304;9.816;2023-02-15T07:54:29;14.00;;;6.33;;
545;SDS011;259;53.304;9.816;2023-02-15T07:56:55;13.20;;;6.27;;
545;SDS011;259;53.304;9.816;2023-02-15T07:59:20;12.37;;;6.23;;
545;SDS011;259;53.304;9.816;2023-02-15T08:01:46;19.83;;;5.77;;
545;SDS011;259;53.304;9.816;2023-02-15T08:04:12;10.00;;;4.83;;
545;SDS011;259;53.304;9.816;2023-02-15T08:06:38;8.47;;;4.40;;
545;SDS011;259;53.304;9.816;2023-02-15T08:09:06;13.83;;;5.17;;
545;SDS011;259;53.304;9.816;2023-02-15T08:11:34;8.73;;;4.27;;
545;SDS011;259;53.304;9.816;2023-02-15T08:16:50;11.13;;;4.17;;
545;SDS011;259;53.304;9.816;2023-02-15T08:19:20;11.00;;;3.97;;
545;SDS011;259;53.304;9.816;2023-02-15T08:21:53;8.23;;;3.20;;
545;SDS011;259;53.304;9.816;2023-02-15T08:24:25;11.67;;;3.93;;
545;SDS011;259;53.304;9.816;2023-02-15T08:26:53;18.93;;;4.93;;
545;SDS011;259;53.304;9.816;2023-02-15T08:29:20;7.23;;;3.93;;
545;SDS011;259;53.304;9.816;2023-02-15T08:31:52;14.43;;;3.80;;
545;SDS011;259;53.304;9.816;2023-02-15T08:34:23;6.60;;;3.87;;
545;SDS011;259;53.304;9.816;2023-02-15T08:36:49;9.43;;;3.67;;
545;SDS011;259;53.304;9.816;2023-02-15T08:39:15;11.17;;;3.77;;
545;SDS011;259;53.304;9.816;2023-02-15T08:41:42;15.83;;;3.80;;
545;SDS011;259;53.304;9.816;2023-02-15T08:44:10;15.43;;;4.00;;
545;SDS011;259;53.304;9.816;2023-02-15T08:46:37;11.43;;;3.90;;
545;SDS011;259;53.304;9.816;2023-02-15T08:49:05;6.60;;;3.20;;
545;SDS011;259;53.304;9.816;2023-02-15T08:51:32;8.13;;;2.93;;
545;SDS011;259;53.304;9.816;2023-02-15T08:54:06;9.60;;;3.23;;
545;SDS011;259;53.304;9.816;2023-02-15T08:56:36;8.60;;;4.60;;
545;SDS011;259;53.304;9.816;2023-02-15T08:59:05;10.70;;;3.40;;
545;SDS011;259;53.304;9.816;2023-02-15T09:01:33;18.87;;;4.33;;
545;SDS011;259;53.304;9.816;2023-02-15T09:04:03;13.90;;;3.87;;
545;SDS011;259;53.304;9.816;2023-02-15T09:06:33;15.60;;;4.20;;
545;SDS011;259;53.304;9.816;2023-02-15T09:09:00;12.13;;;4.17;;
545;SDS011;259;53.304;9.816;2023-02-15T09:11:29;9.43;;;3.57;;
545;SDS011;259;53.304;9.816;2023-02-15T09:13:58;10.00;;;3.30;;
545;SDS011;259;53.304;9.816;2023-02-15T09:16:28;12.60;;;3.43;;
545;SDS011;259;53.304;9.816;2023-02-15T09:18:56;19.00;;;3.90;;
545;SDS011;259;53.304;9.816;2023-02-15T09:21:23;15.07;;;4.20;;
545;SDS011;259;53.304;9.816;2023-02-15T09:23:51;15.43;;;3.20;;
545;SDS011;259;53.304;9.816;2023-02-15T09:26:23;27.63;;;5.13;;
545;SDS011;259;53.304;9.816;2023-02-15T09:28:53;13.20;;;3.40;;
545;SDS011;259;53.304;9.816;2023-02-15T09:31:22;23.50;;;5.13;;
545;SDS011;259;53.304;9.816;2023-02-15T09:33:51;27.40;;;5.47;;
545;SDS011;259;53.304;9.816;2023-02-15T09:36:18;16.87;;;3.63;;
545;SDS011;259;53.304;9.816;2023-02-15T09:38:47;17.53;;;4.10;;
545;SDS011;259;53.304;9.816;2023-02-15T09:44:31;11.43;;;4.40;;
545;SDS011;259;53.304;9.816;2023-02-15T09:53:41;14.10;;;3.50;;
545;SDS011;259;53.304;9.816;2023-02-15T10:10:24;7.33;;;5.30;;
545;SDS011;259;53.304;9.816;2023-02-15T10:13:24;8.37;;;5.13;;
545;SDS011;259;53.304;9.816;2023-02-15T10:18:48;11.00;;;5.03;;
545;SDS011;259;53.304;9.816;2023-02-15T10:27:12;5.23;;;3.80;;
545;SDS011;259;53.304;9.816;2023-02-15T10:30:30;4.97;;;3.63;;
545;SDS011;259;53.304;9.816;2023-02-15T10:32:50;4.77;;;3.50;;
545;SDS011;259;53.304;9.816;2023-02-15T10:36:04;5.67;;;3.97;;
545;SDS011;259;53.304;9.816;2023-02-15T10:45:07;3.20;;;2.90;;
545;SDS011;259;53.304;9.816;2023-02-15T10:51:47;3.70;;;3.20;;
545;SDS011;259;53.304;9.816;2023-02-15T11:00:00;3.13;;;2.83;;
545;SDS011;259;53.304;9.816;2023-02-15T11:08:07;2.90;;;2.70;;
545;SDS011;259;53.304;9.816;2023-02-15T11:10:39;3.13;;;2.93;;
545;SDS011;259;53.304;9.816;2023-02-15T11:13:14;3.17;;;2.93;;
545;SDS011;259;53.304;9.816;2023-02-15T11:18:28;3.30;;;3.10;;
545;SDS011;259;53.304;9.816;2023-02-15T11:20:58;3.70;;;3.40;;
545;SDS011;259;53.304;9.816;2023-02-15T11:23:40;2.93;;;2.70;;
545;SDS011;259;53.304;9.816;2023-02-15T11:29:05;3.10;;;2.57;;
545;SDS011;259;53.304;9.816;2023-02-15T11:31:48;6.40;;;2.87;;
545;SDS011;259;53.304;9.816;2023-02-15T11:34:34;3.40;;;3.10;;
545;SDS011;259;53.304;9.816;2023-02-15T11:37:08;5.20;;;2.80;;
545;SDS011;259;53.304;9.816;2023-02-15T11:39:38;2.77;;;2.57;;
545;SDS011;259;53.304;9.816;2023-02-15T11:42:10;3.70;;;2.93;;
545;SDS011;259;53.304;9.816;2023-02-15T11:44:41;2.80;;;2.60;;
545;SDS011;259;53.304;9.816;2023-02-15T11:47:22;3.17;;;2.97;;
545;SDS011;259;53.304;9.816;2023-02-15T11:49:48;2.30;;;2.20;;
545;SDS011;259;53.304;9.816;2023-02-15T11:52:14;3.00;;;2.80;;
545;SDS011;259;53.304;9.816;2023-02-15T11:54:43;3.30;;;3.10;;
545;SDS011;259;53.304;9.816;2023-02-15T12:00:01;3.93;;;3.17;;
545;SDS011;259;53.304;9.816;2023-02-15T12:02:32;3.00;;;2.80;;
545;SDS011;259;53.304;9.816;2023-02-15T12:05:06;2.67;;;2.47;;
545;SDS011;259;53.304;9.816;2023-02-15T12:07:40;2.90;;;2.70;;
545;SDS011;259;53.304;9.816;2023-02-15T12:10:26;3.70;;;2.93;;
545;SDS011;259;53.304;9.816;2023-02-15T12:13:10;3.40;;;3.20;;
545;SDS011;259;53.304;9.816;2023-02-15T12:15:37;3.07;;;2.50;;
545;SDS011;259;53.304;9.816;2023-02-15T12:18:20;2.30;;;2.20;;
545;SDS011;259;53.304;9.816;2023-02-15T12:20:52;2.80;;;2.60;;
545;SDS011;259;53.304;9.816;2023-02-15T12:23:23;3.07;;;2.87;;
545;SDS011;259;53.304;9.816;2023-02-15T12:25:53;2.70;;;2.50;;
545;SDS011;259;53.304;9.816;2023-02-15T12:30:59;3.00;;;2.80;;
545;SDS011;259;53.304;9.816;2023-02-15T12:38:35;3.03;;;2.83;;
545;SDS011;259;53.304;9.816;2023-02-15T12:41:02;2.97;;;2.77;;
545;SDS011;259;53.304;9.816;2023-02-15T12:44:06;3.30;;;3.10;;
545;SDS011;259;53.304;9.816;2023-02-15T12:46:41;2.43;;;2.20;;
545;SDS011;259;53.304;9.816;2023-02-15T12:49:17;2.80;;;2.60;;
545;SDS011;259;53.304;9.816;2023-02-15T12:54:25;2.63;;;2.53;;
545;SDS011;259;53.304;9.816;2023-02-15T12:59:49;3.30;;;3.10;;
545;SDS011;259;53.304;9.816;2023-02-15T13:05:14;2.53;;;2.43;;
545;SDS011;259;53.304;9.816;2023-02-15T13:07:58;3.20;;;3.00;;
545;SDS011;259;53.304;9.816;2023-02-15T13:10:37;3.17;;;2.97;;
545;SDS011;259;53.304;9.816;2023-02-15T13:13:25;2.80;;;2.70;;
545;SDS011;259;53.304;9.816;2023-02-15T13:15:56;2.97;;;2.77;;
545;SDS011;259;53.304;9.816;2023-02-15T13:18:37;2.70;;;2.57;;
545;SDS011;259;53.304;9.816;2023-02-15T13:21:12;2.90;;;2.70;;
545;SDS011;259;53.304;9.816;2023-02-15T13:23:48;3.07;;;2.87;;
545;SDS011;259;53.304;9.816;2023-02-15T13:26:20;2.63;;;2.53;;
545;SDS011;259;53.304;9.816;2023-02-15T13:28:49;2.37;;;2.27;;
545;SDS011;259;53.304;9.816;2023-02-15T13:31:23;3.10;;;2.93;;
545;SDS011;259;53.304;9.816;2023-02-15T13:33:54;2.57;;;2.37;;
545;SDS011;259;53.304;9.816;2023-02-15T13:36:30;2.90;;;2.70;;
545;SDS011;259;53.304;9.816;2023-02-15T13:39:18;3.40;;;3.20;;
545;SDS011;259;53.304;9.816;2023-02-15T13:42:00;2.60;;;2.40;;
545;SDS011;259;53.304;9.816;2023-02-15T13:56:40;3.00;;;2.80;;
545;SDS011;259;53.304;9.816;2023-02-15T13:59:52;2.57;;;2.47;;
545;SDS011;259;53.304;9.816;2023-02-15T14:06:08;2.97;;;2.77;;
545;SDS011;259;53.304;9.816;2023-02-15T14:11:25;2.87;;;2.67;;
545;SDS011;259;53.304;9.816;2023-02-15T14:17:42;3.00;;;2.80;;
545;SDS011;259;53.304;9.816;2023-02-15T14:20:32;3.00;;;2.80;;
545;SDS011;259;53.304;9.816;2023-02-15T14:23:34;3.00;;;2.80;;
545;SDS011;259;53.304;9.816;2023-02-15T14:31:57;3.20;;;2.93;;
545;SDS011;259;53.304;9.816;2023-02-15T14:34:30;3.10;;;2.90;;
545;SDS011;259;53.304;9.816;2023-02-15T14:37:11;2.30;;;2.20;;
545;SDS011;259;53.304;9.816;2023-02-15T14:43:00;2.70;;;2.50;;
545;SDS011;259;53.304;9.816;2023-02-15T14:48:53;3.20;;;3.00;;
545;SDS011;259;53.304;9.816;2023-02-15T14:54:56;2.90;;;2.70;;
545;SDS011;259;53.304;9.816;2023-02-15T15:02:23;4.50;;;4.10;;
545;SDS011;259;53.304;9.816;2023-02-15T15:05:00;8.80;;;8.07;;
545;SDS011;259;53.304;9.816;2023-02-15T15:07:36;12.97;;;11.73;;
545;SDS011;259;53.304;9.816;2023-02-15T15:12:43;15.17;;;13.77;;
545;SDS011;259;53.304;9.816;2023-02-15T15:18:00;13.73;;;12.63;;
545;SDS011;259;53.304;9.816;2023-02-15T15:21:11;14.40;;;13.00;;
545;SDS011;259;53.304;9.816;2023-02-15T15:32:39;11.60;;;10.60;;
545;SDS011;259;53.304;9.816;2023-02-15T15:50:14;9.60;;;8.77;;
545;SDS011;259;53.304;9.816;2023-02-15T15:52:44;8.53;;;7.83;;
545;SDS011;259;53.304;9.816;2023-02-15T15:55:19;8.93;;;8.03;;
545;SDS011;259;53.304;9.816;2023-02-15T15:57:50;8.40;;;7.77;;
545;SDS011;259;53.304;9.816;2023-02-15T16:03:13;7.57;;;6.93;;
545;SDS011;259;53.304;9.816;2023-02-15T16:05:50;7.67;;;7.07;;
545;SDS011;259;53.304;9.816;2023-02-15T16:08:36;7.43;;;6.73;;
545;SDS011;259;53.304;9.816;2023-02-15T16:11:10;7.20;;;6.50;;
545;SDS011;259;53.304;9.816;2023-02-15T16:13:44;7.33;;;6.73;;
545;SDS011;259;53.304;9.816;2023-02-15T16:16:11;7.57;;;6.87;;
545;SDS011;259;53.304;9.816;2023-02-15T16:18:38;7.17;;;6.60;;
545;SDS011;259;53.304;9.816;2023-02-15T16:21:12;7.17;;;6.60;;
545;SDS011;259;53.304;9.816;2023-02-15T16:24:31;6.60;;;6.00;;
545;SDS011;259;53.304;9.816;2023-02-15T16:29:55;7.37;;;6.67;;
545;SDS011;259;53.304;9.816;2023-02-15T16:32:21;6.97;;;6.37;;
545;SDS011;259;53.304;9.816;2023-02-15T16:34:53;6.03;;;5.47;;
545;SDS011;259;53.304;9.816;2023-02-15T16:37:23;6.60;;;6.10;;
545;SDS011;259;53.304;9.816;2023-02-15T16:39:56;7.00;;;6.40;;
545;SDS011;259;53.304;9.816;2023-02-15T16:42:22;6.50;;;6.00;;
545;SDS011;259;53.304;9.816;2023-02-15T16:44:50;5.60;;;5.20;;
545;SDS011;259;53.304;9.816;2023-02-15T16:47:22;6.10;;;5.60;;
545;SDS011;259;53.304;9.816;2023-02-15T16:49:58;5.90;;;5.40;;
545;SDS011;259;53.304;9.816;2023-02-15T16:52:27;6.70;;;6.10;;
545;SDS011;259;53.304;9.816;2023-02-15T16:54:55;6.57;;;6.07;;
545;SDS011;259;53.304;9.816;2023-02-15T16:57:31;6.07;;;5.67;;
545;SDS011;259;53.304;9.816;2023-02-15T17:00:04;6.27;;;5.87;;
545;SDS011;259;53.304;9.816;2023-02-15T17:02:39;5.90;;;5.50;;
545;SDS011;259;53.304;9.816;2023-02-15T17:08:17;6.53;;;6.03;;
545;SDS011;259;53.304;9.816;2023-02-15T17:13:23;5.93;;;5.43;;
545;SDS011;259;53.304;9.816;2023-02-15T17:18:30;6.27;;;5.53;;
545;SDS011;259;53.304;9.816;2023-02-15T17:21:18;6.20;;;5.70;;
545;SDS011;259;53.304;9.816;2023-02-15T17:23:51;5.13;;;4.73;;
545;SDS011;259;53.304;9.816;2023-02-15T17:26:35;5.57;;;5.17;;
545;SDS011;259;53.304;9.816;2023-02-15T17:31:48;6.40;;;6.00;;
545;SDS011;259;53.304;9.816;2023-02-15T17:37:25;5.73;;;5.23;;
545;SDS011;259;53.304;9.816;2023-02-15T17:40:00;5.63;;;5.13;;
545;SDS011;259;53.304;9.816;2023-02-15T17:42:39;4.70;;;4.40;;
545;SDS011;259;53.304;9.816;2023-02-15T17:45:05;6.40;;;5.90;;
545;SDS011;259;53.304;9.816;2023-02-15T17:47:31;5.90;;;5.40;;
545;SDS011;259;53.304;9.816;2023-02-15T17:49:57;6.13;;;5.63;;
545;SDS011;259;53.304;9.816;2023-02-15T17:52:26;5.40;;;5.00;;
545;SDS011;259;53.304;9.816;2023-02-15T17:54:54;5.50;;;5.07;;
545;SDS011;259;53.304;9.816;2023-02-15T17:57:38;5.43;;;5.03;;
545;SDS011;259;53.304;9.816;2023-02-15T18:00:04;5.57;;;5.07;;
545;SDS011;259;53.304;9.816;2023-02-15T18:02:50;5.07;;;4.67;;
545;SDS011;259;53.304;9.816;2023-02-15T18:05:34;5.40;;;5.00;;
545;SDS011;259;53.304;9.816;2023-02-15T18:08:19;4.83;;;4.50;;
545;SDS011;259;53.304;9.816;2023-02-15T18:11:09;5.30;;;4.90;;
545;SDS011;259;53.304;9.816;2023-02-15T18:13:53;5.30;;;4.90;;
545;SDS011;259;53.304;9.816;2023-02-15T18:16:22;5.50;;;5.10;;
545;SDS011;259;53.304;9.816;2023-02-15T18:18:50;4.67;;;4.37;;
545;SDS011;259;53.304;9.816;2023-02-15T18:21:17;5.10;;;4.70;;
545;SDS011;259;53.304;9.816;2023-02-15T18:23:44;5.37;;;4.97;;
545;SDS011;259;53.304;9.816;2023-02-15T18:26:11;4.57;;;4.27;;
545;SDS011;259;53.304;9.816;2023-02-15T18:28:45;5.50;;;5.10;;
545;SDS011;259;53.304;9.816;2023-02-15T18:31:11;4.80;;;4.40;;
545;SDS011;259;53.304;9.816;2023-02-15T18:33:38;5.60;;;5.20;;
545;SDS011;259;53.304;9.816;2023-02-15T18:36:21;5.50;;;5.10;;
545;SDS011;259;53.304;9.816;2023-02-15T18:38:54;4.90;;;4.50;;
545;SDS011;259;53.304;9.816;2023-02-15T18:41:20;4.83;;;4.53;;
545;SDS011;259;53.304;9.816;2023-02-15T18:43:46;5.60;;;5.20;;
545;SDS011;259;53.304;9.816;2023-02-15T18:46:13;4.70;;;4.30;;
545;SDS011;259;53.304;9.816;2023-02-15T18:48:40;5.50;;;5.00;;
545;SDS011;259;53.304;9.816;2023-02-15T18:51:16;5.60;;;5.10;;
545;SDS011;259;53.304;9.816;2023-02-15T18:53:44;5.50;;;5.00;;
545;SDS011;259;53.304;9.816;2023-02-15T18:56:16;5.53;;;5.13;;
545;SDS011;259;53.304;9.816;2023-02-15T18:58:44;5.53;;;5.13;;
545;SDS011;259;53.304;9.816;2023-02-15T19:01:14;5.07;;;4.67;;
545;SDS011;259;53.304;9.816;2023-02-15T19:03:47;5.43;;;5.03;;
545;SDS011;259;53.304;9.816;2023-02-15T19:06:16;4.87;;;4.47;;
545;SDS011;259;53.304;9.816;2023-02-15T19:08:45;5.73;;;5.33;;
545;SDS011;259;53.304;9.816;2023-02-15T19:11:21;5.37;;;4.97;;
545;SDS011;259;53.304;9.816;2023-02-15T19:13:49;5.27;;;4.93;;
545;SDS011;259;53.304;9.816;2023-02-15T19:18:56;5.57;;;5.17;;
545;SDS011;259;53.304;9.816;2023-02-15T19:21:23;5.00;;;4.60;;
545;SDS011;259;53.304;9.816;2023-02-15T19:23:53;4.73;;;4.43;;
545;SDS011;259;53.304;9.816;2023-02-15T19:26:23;5.20;;;4.80;;
545;SDS011;259;53.304;9.816;2023-02-15T19:28:50;5.20;;;4.70;;
545;SDS011;259;53.304;9.816;2023-02-15T19:31:16;5.23;;;4.90;;
545;SDS011;259;53.304;9.816;2023-02-15T19:33:42;5.77;;;5.17;;
545;SDS011;259;53.304;9.816;2023-02-15T19:36:15;5.50;;;5.10;;